Terminal Aerodrome Forecast
Issued by NWS

Home | Current Version | Previous Version | Text Only | Print | Product List | Glossary On
Versions: 1 2 3 4 5 6 7 8 9 10 11 12 13 14 15
000
FTAK31 PAJN 200700 AAA
TAFASI
TAF AMD
PASI 200704Z 2007/2106 12015G22KT P6SM VCSH FEW030 OVC060
      WS020/14040KT
      TEMPO 2007/2011 5SM -SHRA BR BKN025 OVC050
     FM201100 13018G28KT 4SM RA BR BKN020 OVC030 WS020/14040KT
     FM202100 13012KT 6SM -RA BR OVC025
     FM210000 13010KT 6SM -SHRA BCFG OVC030=

USA.gov is the U.S. government's official web portal to all federal, state and local government web resources and services.